createdAt,value
2019-04-01T00:02:08.533Z,23.53
2019-04-01T00:04:35.548Z,24.30
2019-04-01T00:07:02.467Z,24.67
2019-04-01T00:09:29.382Z,23.70
2019-04-01T00:11:56.292Z,24.27
2019-04-01T00:14:23.227Z,23.93
2019-04-01T00:16:50.131Z,22.97
2019-04-01T00:19:17.080Z,21.90
2019-04-01T00:21:44.756Z,23.23
2019-04-01T00:24:11.025Z,23.00
2019-04-01T00:26:37.976Z,22.57
2019-04-01T00:29:05.353Z,22.93
2019-04-01T00:31:32.268Z,23.13
2019-04-01T00:33:59.665Z,23.63
2019-04-01T00:36:26.581Z,21.80
2019-04-01T00:38:53.501Z,22.60
2019-04-01T00:41:20.452Z,23.93
2019-04-01T00:43:51.839Z,25.10
2019-04-01T00:46:18.782Z,25.47
2019-04-01T00:48:45.728Z,26.10
2019-04-01T00:51:12.632Z,26.53
2019-04-01T00:53:39.541Z,25.83
2019-04-01T00:56:06.483Z,25.77
2019-04-01T00:58:33.399Z,26.63
2019-04-01T01:01:00.320Z,26.00
2019-04-01T01:03:27.252Z,25.60
2019-04-01T01:05:54.186Z,26.60
2019-04-01T01:08:21.098Z,25.70
2019-04-01T01:10:48.032Z,26.00
2019-04-01T01:13:15.409Z,25.47
2019-04-01T01:15:42.057Z,25.33
2019-04-01T01:18:08.994Z,24.57
2019-04-01T01:20:35.931Z,24.37
2019-04-01T01:23:02.855Z,23.93
2019-04-01T01:25:29.776Z,24.77
2019-04-01T01:27:56.689Z,23.40
2019-04-01T01:30:23.947Z,24.10
2019-04-01T01:32:50.884Z,25.33
2019-04-01T01:35:17.804Z,24.37
2019-04-01T01:37:44.733Z,23.47
2019-04-01T01:40:11.665Z,24.33
2019-04-01T01:42:38.576Z,24.33
2019-04-01T01:45:05.520Z,22.57
2019-04-01T01:47:32.454Z,24.20
2019-04-01T01:49:59.375Z,24.43
2019-04-01T01:52:26.294Z,23.33
2019-04-01T01:54:53.635Z,24.00
2019-04-01T01:57:20.590Z,23.23
2019-04-01T01:59:47.509Z,24.33
2019-04-01T02:02:14.523Z,23.63
2019-04-01T02:04:41.359Z,24.03
2019-04-01T02:07:08.297Z,23.23
2019-04-01T02:09:35.233Z,23.63
2019-04-01T02:12:02.156Z,24.40
2019-04-01T02:14:29.067Z,24.07
2019-04-01T02:16:55.997Z,23.60
2019-04-01T02:19:22.908Z,24.03
2019-04-01T02:21:49.844Z,24.50
2019-04-01T02:24:16.820Z,24.77
2019-04-01T02:26:43.697Z,24.40
2019-04-01T02:29:10.602Z,24.07
2019-04-01T02:31:37.733Z,23.93
2019-04-01T02:34:04.789Z,23.77
2019-04-01T02:36:31.580Z,23.43
2019-04-01T02:38:58.506Z,23.77
2019-04-01T02:41:25.434Z,24.13
2019-04-01T02:43:52.361Z,24.67
2019-04-01T02:46:19.305Z,25.20
2019-04-01T02:48:46.213Z,25.23
2019-04-01T02:51:13.129Z,23.83
2019-04-01T02:53:40.073Z,23.93
2019-04-01T02:56:06.973Z,24.43
2019-04-01T02:58:33.905Z,24.03
2019-04-01T03:01:00.872Z,25.13
2019-04-01T03:03:27.802Z,24.77
2019-04-01T03:05:54.693Z,24.73
2019-04-01T03:08:21.612Z,24.80
2019-04-01T03:10:48.647Z,25.63
2019-04-01T03:13:15.569Z,25.37
2019-04-01T03:15:42.497Z,24.23
2019-04-01T03:18:09.409Z,25.30
2019-04-01T03:20:36.325Z,24.93
2019-04-01T03:23:03.249Z,24.40
2019-04-01T03:25:30.168Z,24.90
2019-04-01T03:27:57.092Z,24.67
2019-04-01T03:30:24.051Z,25.33
2019-04-01T03:32:51.141Z,24.83
2019-04-01T03:35:18.081Z,25.50
2019-04-01T03:37:45.001Z,25.13
2019-04-01T03:40:11.921Z,25.17
2019-04-01T03:42:38.840Z,25.53
2019-04-01T03:45:05.808Z,25.60
2019-04-01T03:47:32.720Z,24.27
2019-04-01T03:49:59.637Z,25.43
2019-04-01T03:52:26.571Z,25.07
2019-04-01T03:54:53.465Z,26.10
2019-04-01T03:57:20.376Z,25.83
2019-04-01T03:59:47.317Z,26.83
2019-04-01T04:02:14.255Z,24.57
2019-04-01T04:04:41.166Z,25.90
2019-04-01T04:07:08.109Z,25.80
2019-04-01T04:09:35.047Z,25.57
2019-04-01T04:12:01.964Z,24.50
2019-04-01T04:14:28.891Z,25.63
2019-04-01T04:16:55.809Z,25.27
2019-04-01T04:19:22.729Z,25.13
2019-04-01T04:21:49.697Z,26.27
2019-04-01T04:24:16.624Z,27.07
2019-04-01T04:26:43.561Z,27.07
2019-04-01T04:29:10.497Z,25.67
2019-04-01T04:31:37.439Z,26.50
2019-04-01T04:34:04.617Z,26.80
2019-04-01T04:36:31.564Z,25.43
2019-04-01T04:38:58.492Z,25.93
2019-04-01T04:41:25.460Z,25.73
2019-04-01T04:43:52.418Z,26.63
2019-04-01T04:46:21.310Z,27.47
2019-04-01T04:48:46.273Z,27.53
2019-04-01T04:51:13.223Z,27.37
2019-04-01T04:53:40.183Z,26.57
2019-04-01T04:56:07.160Z,26.33
2019-04-01T04:58:34.048Z,27.93
2019-04-01T05:01:00.972Z,26.43
2019-04-01T05:03:27.887Z,26.90
2019-04-01T05:05:54.838Z,26.43
2019-04-01T05:08:21.761Z,27.03
2019-04-01T05:10:48.668Z,27.27
2019-04-01T05:13:15.644Z,27.33
2019-04-01T05:15:42.563Z,27.37
2019-04-01T05:18:09.474Z,27.30
2019-04-01T05:20:37.044Z,27.60
2019-04-01T05:23:03.968Z,27.30
2019-04-01T05:25:32.000Z,25.50
2019-04-01T05:27:58.274Z,27.23
2019-04-01T05:30:25.197Z,27.70
2019-04-01T05:32:52.104Z,28.07
2019-04-01T05:35:19.526Z,54.47
2019-04-01T05:37:46.358Z,28.97
2019-04-01T05:40:13.276Z,27.53
2019-04-01T05:42:40.209Z,28.17
2019-04-01T05:45:07.128Z,41.03
2019-04-01T05:47:39.280Z,43.47
2019-04-01T05:50:06.214Z,49.73
2019-04-01T05:52:33.155Z,35.40
2019-04-01T05:55:00.368Z,28.33
2019-04-01T05:57:27.028Z,27.27
2019-04-01T05:59:53.976Z,28.27
2019-04-01T06:02:20.904Z,26.87
2019-04-01T06:04:47.855Z,27.13
2019-04-01T06:07:14.796Z,27.63
2019-04-01T06:09:41.879Z,26.67
2019-04-01T06:12:08.847Z,27.30
2019-04-01T06:14:35.783Z,30.57
2019-04-01T06:17:02.709Z,29.03
2019-04-01T06:19:29.664Z,27.80
2019-04-01T06:21:56.604Z,28.20
2019-04-01T06:24:24.870Z,27.07
2019-04-01T06:26:50.450Z,26.97
2019-04-01T06:29:17.389Z,26.67
2019-04-01T06:31:44.402Z,27.33
2019-04-01T06:34:11.333Z,26.97
2019-04-01T06:36:39.596Z,26.23
2019-04-01T06:39:06.520Z,26.60
2019-04-01T06:41:33.504Z,27.80
2019-04-01T06:44:00.418Z,27.50
2019-04-01T06:46:27.368Z,28.40
2019-04-01T06:48:54.361Z,28.47
2019-04-01T06:51:21.291Z,27.63
2019-04-01T06:53:48.229Z,25.80
2019-04-01T06:56:15.160Z,26.80
2019-04-01T06:58:42.101Z,26.87
2019-04-01T07:01:09.028Z,26.93
2019-04-01T07:03:35.989Z,28.63
2019-04-01T07:06:02.935Z,27.63
2019-04-01T07:08:29.856Z,27.47
2019-04-01T07:10:56.788Z,27.67
2019-04-01T07:13:23.704Z,27.83
2019-04-01T07:15:50.624Z,28.43
2019-04-01T07:18:17.565Z,27.77
2019-04-01T07:20:44.491Z,26.60
2019-04-01T07:23:11.407Z,27.03
2019-04-01T07:25:38.409Z,27.50
2019-04-01T07:28:05.362Z,27.17
2019-04-01T07:30:32.289Z,28.07
2019-04-01T07:32:59.243Z,27.23
2019-04-01T07:35:26.178Z,27.60
2019-04-01T07:37:53.292Z,27.43
2019-04-01T07:40:20.227Z,28.33
2019-04-01T07:42:47.143Z,27.17
2019-04-01T07:45:14.067Z,28.23
2019-04-01T07:47:41.025Z,28.20
2019-04-01T07:50:07.960Z,28.10
2019-04-01T07:52:34.957Z,27.60
2019-04-01T07:55:01.889Z,27.57
2019-04-01T07:57:32.494Z,27.23
2019-04-01T07:59:56.952Z,26.67
2019-04-01T08:02:23.085Z,27.13
2019-04-01T08:04:50.006Z,26.33
2019-04-01T08:07:16.923Z,26.80
2019-04-01T08:09:43.882Z,26.73
2019-04-01T08:12:10.799Z,27.00
2019-04-01T08:14:37.757Z,27.33
2019-04-01T08:17:04.790Z,25.83
2019-04-01T08:19:31.705Z,27.47
2019-04-01T08:21:58.636Z,25.43
2019-04-01T08:24:25.616Z,26.53
2019-04-01T08:26:52.574Z,28.27
2019-04-01T08:29:30.145Z,27.10
2019-04-01T08:31:46.420Z,27.17
2019-04-01T08:34:13.328Z,29.03
2019-04-01T08:36:40.269Z,26.83
2019-04-01T08:39:11.787Z,27.90
2019-04-01T08:41:38.681Z,27.03
2019-04-01T08:44:05.615Z,26.97
2019-04-01T08:46:32.551Z,26.40
2019-04-01T08:48:59.460Z,27.27
2019-04-01T08:51:26.382Z,26.53
2019-04-01T08:53:53.345Z,25.83
2019-04-01T08:56:20.270Z,27.43
2019-04-01T08:58:47.191Z,26.50
2019-04-01T09:01:14.123Z,25.87
2019-04-01T09:03:41.043Z,25.10
2019-04-01T09:06:08.089Z,26.90
2019-04-01T09:08:35.748Z,25.87
2019-04-01T09:11:02.669Z,25.73
2019-04-01T09:13:29.746Z,25.77
2019-04-01T09:15:56.644Z,24.50
2019-04-01T09:18:23.577Z,25.93
2019-04-01T09:20:50.503Z,24.93
2019-04-01T09:23:17.441Z,24.60
2019-04-01T09:25:44.353Z,24.90
2019-04-01T09:28:11.295Z,23.83
2019-04-01T09:30:38.252Z,23.83
2019-04-01T09:33:05.167Z,23.70
2019-04-01T09:35:44.545Z,23.10
2019-04-01T09:38:11.716Z,23.80
2019-04-01T09:40:41.040Z,23.07
2019-04-01T09:43:07.996Z,23.17
2019-04-01T09:45:35.001Z,23.73
2019-04-01T09:48:01.897Z,23.20
2019-04-01T09:50:28.815Z,23.53
2019-04-01T09:52:55.740Z,23.10
2019-04-01T09:55:22.764Z,23.33
2019-04-01T09:57:54.345Z,22.93
2019-04-01T10:00:21.292Z,21.33
2019-04-01T10:02:50.092Z,21.63
2019-04-01T10:05:17.065Z,22.17
2019-04-01T10:07:44.092Z,21.73
2019-04-01T10:10:11.008Z,21.13
2019-04-01T10:12:38.029Z,20.67
2019-04-01T10:15:05.175Z,20.60
2019-04-01T10:17:32.117Z,19.37
2019-04-01T10:20:00.918Z,18.90
2019-04-01T10:22:25.985Z,18.60
2019-04-01T10:24:53.163Z,20.03
2019-04-01T10:27:20.122Z,19.27
2019-04-01T10:29:47.036Z,19.23
2019-04-01T10:32:13.943Z,19.87
2019-04-01T10:34:42.194Z,19.60
2019-04-01T10:37:09.139Z,18.63
2019-04-01T10:39:36.053Z,17.57
2019-04-01T10:42:03.492Z,19.37
2019-04-01T10:44:30.426Z,18.83
2019-04-01T10:46:57.438Z,18.57
2019-04-01T10:49:24.399Z,18.37
2019-04-01T10:51:51.226Z,18.57
2019-04-01T10:54:18.184Z,17.80
2019-04-01T10:56:45.162Z,17.10
2019-04-01T10:59:12.087Z,18.50
2019-04-01T11:01:38.976Z,16.57
2019-04-01T11:04:06.633Z,17.73
2019-04-01T11:06:33.592Z,17.67
2019-04-01T11:09:00.470Z,16.70
2019-04-01T11:11:27.625Z,17.07
2019-04-01T11:13:54.410Z,16.17
2019-04-01T11:16:21.253Z,17.37
2019-04-01T11:18:48.178Z,16.73
2019-04-01T11:21:15.086Z,14.57
2019-04-01T11:23:42.014Z,15.87
2019-04-01T11:26:08.980Z,16.93
2019-04-01T11:28:35.919Z,15.50
2019-04-01T11:31:02.945Z,16.80
2019-04-01T11:33:29.814Z,15.73
2019-04-01T11:35:56.760Z,17.73
2019-04-01T11:38:23.720Z,16.17
2019-04-01T11:40:50.634Z,14.57
2019-04-01T11:43:18.790Z,15.53
2019-04-01T11:45:45.750Z,16.97
2019-04-01T11:48:12.677Z,14.60
2019-04-01T11:50:39.596Z,15.20
2019-04-01T11:53:07.156Z,14.37
2019-04-01T11:55:33.459Z,15.40
2019-04-01T11:58:00.731Z,15.63
2019-04-01T12:00:28.537Z,15.20
2019-04-01T12:02:55.533Z,14.57
2019-04-01T12:05:22.452Z,14.73
2019-04-01T12:07:49.380Z,13.57
2019-04-01T12:10:16.336Z,14.03
2019-04-01T12:12:43.269Z,14.30
2019-04-01T12:15:12.359Z,14.90
2019-04-01T12:17:37.240Z,15.43
2019-04-01T12:20:04.268Z,15.03
2019-04-01T12:22:31.214Z,13.97
2019-04-01T12:24:58.190Z,16.30
2019-04-01T12:27:25.128Z,14.27
2019-04-01T12:29:52.067Z,14.47
2019-04-01T12:32:19.777Z,14.33
2019-04-01T12:34:46.758Z,14.90
2019-04-01T12:37:12.937Z,15.80
2019-04-01T12:39:41.055Z,15.33
2019-04-01T12:42:07.108Z,16.20
2019-04-01T12:44:35.371Z,16.40
2019-04-01T12:47:02.644Z,15.30
2019-04-01T12:49:31.042Z,14.43
2019-04-01T12:51:58.401Z,13.93
2019-04-01T12:54:25.543Z,14.13
2019-04-01T12:56:52.445Z,13.73
2019-04-01T12:59:19.392Z,13.47
2019-04-01T13:01:46.471Z,14.57
2019-04-01T13:04:13.393Z,14.20
2019-04-01T13:06:40.340Z,13.20
2019-04-01T13:09:07.294Z,13.47
2019-04-01T13:11:34.699Z,11.20
2019-04-01T13:14:01.623Z,13.47
2019-04-01T13:16:28.543Z,14.17
2019-04-01T13:18:55.497Z,13.43
2019-04-01T13:21:22.435Z,14.43
2019-04-01T13:23:49.368Z,15.10
2019-04-01T13:26:16.280Z,14.30
2019-04-01T13:28:43.201Z,13.87
2019-04-01T13:31:10.148Z,14.57
2019-04-01T13:33:37.069Z,13.77
2019-04-01T13:36:07.571Z,13.47
2019-04-01T13:38:30.962Z,11.83
2019-04-01T13:40:57.900Z,12.07
2019-04-01T13:43:24.846Z,12.43
2019-04-01T13:45:52.119Z,13.77
2019-04-01T13:48:19.600Z,13.33
2019-04-01T13:50:46.075Z,13.07
2019-04-01T13:53:13.152Z,13.87
2019-04-01T13:55:40.070Z,13.67
2019-04-01T13:58:07.012Z,13.50
2019-04-01T14:00:33.953Z,12.60
2019-04-01T14:03:00.877Z,12.93
2019-04-01T14:05:27.854Z,12.40
2019-04-01T14:07:54.798Z,13.70
2019-04-01T14:10:21.695Z,13.27
2019-04-01T14:12:48.620Z,12.63
2019-04-01T14:15:15.604Z,12.67
2019-04-01T14:17:42.522Z,12.17
2019-04-01T14:20:10.037Z,12.10
2019-04-01T14:22:36.967Z,12.87
2019-04-01T14:25:07.158Z,11.43
2019-04-01T14:27:31.017Z,12.60
2019-04-01T14:29:57.936Z,13.70
2019-04-01T14:32:24.885Z,13.80
2019-04-01T14:34:52.079Z,13.20
2019-04-01T14:37:25.591Z,12.73
2019-04-01T14:39:47.328Z,12.57
2019-04-01T14:42:14.258Z,12.07
2019-04-01T14:44:41.272Z,13.23
2019-04-01T14:47:09.744Z,12.03
2019-04-01T14:49:36.641Z,12.47
2019-04-01T14:52:03.586Z,12.50
2019-04-01T14:54:30.510Z,12.10
2019-04-01T14:56:57.431Z,12.60
2019-04-01T14:59:24.370Z,11.80
2019-04-01T15:01:51.285Z,12.23
2019-04-01T15:04:18.243Z,11.87
2019-04-01T15:06:45.516Z,11.50
2019-04-01T15:09:12.115Z,10.53
2019-04-01T15:11:39.048Z,11.10
2019-04-01T15:14:05.996Z,12.10
2019-04-01T15:16:32.989Z,13.00
2019-04-01T15:18:59.915Z,10.30
2019-04-01T15:21:26.860Z,11.27
2019-04-01T15:23:53.825Z,11.10
2019-04-01T15:26:20.769Z,12.53
2019-04-01T15:28:47.717Z,10.83
2019-04-01T15:31:14.670Z,11.03
2019-04-01T15:33:41.645Z,10.90
2019-04-01T15:36:08.578Z,10.80
2019-04-01T15:38:35.642Z,11.23
2019-04-01T15:41:02.561Z,12.37
2019-04-01T15:43:29.536Z,11.90
2019-04-01T15:45:56.464Z,10.23
2019-04-01T15:48:23.587Z,11.70
2019-04-01T15:50:50.544Z,11.10
2019-04-01T15:53:17.485Z,10.83
2019-04-01T15:55:44.428Z,9.97
2019-04-01T15:58:11.372Z,11.33
2019-04-01T16:00:38.312Z,11.20
2019-04-01T16:03:05.221Z,10.63
2019-04-01T16:05:32.185Z,10.73
2019-04-01T16:07:59.143Z,11.90
2019-04-01T16:10:29.190Z,11.03
2019-04-01T16:12:53.001Z,11.90
2019-04-01T16:15:19.971Z,11.40
2019-04-01T16:17:46.940Z,11.77
2019-04-01T16:20:13.894Z,12.00
2019-04-01T16:22:43.518Z,11.47
2019-04-01T16:25:07.779Z,12.13
2019-04-01T16:27:34.725Z,11.30
2019-04-01T16:30:01.648Z,11.97
2019-04-01T16:32:29.365Z,11.63
2019-04-01T16:34:55.535Z,11.47
2019-04-01T16:37:22.468Z,12.17
2019-04-01T16:39:49.586Z,11.90
2019-04-01T16:42:16.508Z,11.63
2019-04-01T16:44:44.086Z,12.17
2019-04-01T16:47:11.031Z,11.57
2019-04-01T16:49:37.762Z,11.80
2019-04-01T16:52:04.727Z,12.17
2019-04-01T16:54:32.582Z,11.73
2019-04-01T16:56:59.504Z,11.80
2019-04-01T16:59:28.120Z,11.07
2019-04-01T17:01:53.339Z,10.30
2019-04-01T17:04:20.964Z,11.10
2019-04-01T17:06:48.318Z,11.33
2019-04-01T17:09:15.224Z,11.07
2019-04-01T17:11:42.171Z,11.77
2019-04-01T17:14:09.580Z,10.73
2019-04-01T17:16:36.016Z,11.30
2019-04-01T17:19:02.945Z,11.30
2019-04-01T17:21:29.863Z,10.37
2019-04-01T17:23:56.792Z,11.70
2019-04-01T17:26:23.737Z,11.67
2019-04-01T17:28:51.733Z,11.40
2019-04-01T17:31:19.036Z,11.20
2019-04-01T17:33:46.849Z,10.57
2019-04-01T17:36:15.759Z,11.03
2019-04-01T17:38:39.804Z,10.73
2019-04-01T17:41:06.776Z,11.03
2019-04-01T17:43:33.687Z,11.00
2019-04-01T17:46:00.657Z,10.77
2019-04-01T17:48:27.598Z,10.67
2019-04-01T17:50:54.811Z,10.83
2019-04-01T17:53:22.277Z,10.13
2019-04-01T17:55:48.676Z,10.63
2019-04-01T17:58:15.947Z,10.37
2019-04-01T18:00:45.058Z,10.40
2019-04-01T18:03:11.995Z,21.17
2019-04-01T18:05:38.901Z,11.33
2019-04-01T18:08:05.931Z,10.20
2019-04-01T18:10:33.519Z,12.13
2019-04-01T18:13:00.461Z,10.70
2019-04-01T18:15:27.363Z,10.60
2019-04-01T18:17:54.311Z,10.73
2019-04-01T18:20:21.201Z,10.33
2019-04-01T18:22:48.116Z,10.97
2019-04-01T18:25:15.035Z,10.57
2019-04-01T18:27:42.029Z,10.67
2019-04-01T18:30:08.901Z,10.47
2019-04-01T18:32:35.887Z,10.27
2019-04-01T18:35:04.175Z,11.20
2019-04-01T18:37:30.111Z,11.83
2019-04-01T18:39:57.343Z,10.80
2019-04-01T18:42:26.600Z,11.07
2019-04-01T18:44:50.940Z,11.10
2019-04-01T18:47:18.069Z,10.13
2019-04-01T18:49:45.937Z,10.93
2019-04-01T18:52:13.538Z,10.87
2019-04-01T18:54:40.826Z,10.63
2019-04-01T18:57:07.724Z,10.57
2019-04-01T18:59:34.631Z,10.60
2019-04-01T19:02:01.589Z,10.93
2019-04-01T19:04:28.504Z,11.17
2019-04-01T19:06:55.443Z,11.17
2019-04-01T19:09:32.508Z,11.13
2019-04-01T19:12:03.865Z,10.80
2019-04-01T19:14:23.999Z,11.60
2019-04-01T19:16:50.924Z,10.73
2019-04-01T19:19:17.818Z,11.07
2019-04-01T19:21:44.733Z,11.50
2019-04-01T19:24:11.786Z,11.33
2019-04-01T19:26:38.708Z,11.97
2019-04-01T19:29:05.645Z,11.60
2019-04-01T19:31:32.577Z,11.80
2019-04-01T19:33:59.572Z,11.43
2019-04-01T19:36:26.540Z,12.27
2019-04-01T19:38:54.494Z,12.53
2019-04-01T19:41:20.865Z,11.87
2019-04-01T19:43:47.462Z,12.30
2019-04-01T19:46:14.424Z,11.70
2019-04-01T19:48:41.565Z,11.83
2019-04-01T19:51:08.486Z,12.27
2019-04-01T19:53:37.007Z,12.43
2019-04-01T19:56:03.945Z,12.37
2019-04-01T19:58:30.879Z,12.43
2019-04-01T20:00:57.826Z,12.60
2019-04-01T20:03:25.547Z,13.23
2019-04-01T20:05:51.747Z,12.40
2019-04-01T20:08:18.713Z,12.33
2019-04-01T20:10:46.264Z,12.50
2019-04-01T20:13:12.597Z,11.50
2019-04-01T20:15:40.326Z,10.60
2019-04-01T20:18:07.821Z,10.93
2019-04-01T20:20:33.396Z,11.83
2019-04-01T20:23:00.524Z,10.83
2019-04-01T20:25:27.638Z,11.23
2019-04-01T20:27:54.553Z,14.17
2019-04-01T20:30:21.475Z,11.80
2019-04-01T20:32:49.192Z,11.00
2019-04-01T20:35:23.359Z,12.43
2019-04-01T20:37:42.442Z,12.13
2019-04-01T20:40:09.246Z,12.13
2019-04-01T20:42:36.400Z,12.03
2019-04-01T20:45:04.088Z,12.73
2019-04-01T20:47:31.012Z,11.33
2019-04-01T20:49:58.384Z,11.50
2019-04-01T20:52:24.866Z,12.33
2019-04-01T20:54:52.040Z,11.87
2019-04-01T20:57:21.793Z,12.23
2019-04-01T20:59:45.960Z,11.80
2019-04-01T21:02:13.899Z,11.93
2019-04-01T21:04:40.808Z,11.93
2019-04-01T21:07:09.847Z,12.60
2019-04-01T21:09:34.697Z,12.53
2019-04-01T21:12:03.063Z,11.67
2019-04-01T21:14:28.620Z,12.57
2019-04-01T21:16:56.021Z,14.67
2019-04-01T21:19:22.468Z,14.40
2019-04-01T21:21:49.456Z,15.00
2019-04-01T21:24:16.378Z,13.67
2019-04-01T21:26:43.289Z,13.73
2019-04-01T21:29:10.254Z,13.83
2019-04-01T21:31:37.169Z,12.47
2019-04-01T21:34:04.092Z,13.80
2019-04-01T21:36:31.085Z,14.00
2019-04-01T21:38:58.017Z,13.47
2019-04-01T21:41:25.382Z,13.83
2019-04-01T21:43:51.917Z,13.23
2019-04-01T21:46:18.818Z,13.67
2019-04-01T21:48:45.736Z,13.20
2019-04-01T21:51:12.677Z,13.20
2019-04-01T21:53:39.580Z,14.37
2019-04-01T21:56:06.714Z,13.90
2019-04-01T21:58:33.648Z,13.90
2019-04-01T22:01:01.668Z,14.30
2019-04-01T22:03:28.593Z,13.90
2019-04-01T22:05:55.588Z,13.40
2019-04-01T22:08:22.534Z,13.43
2019-04-01T22:10:49.503Z,13.67
2019-04-01T22:13:16.452Z,15.00
2019-04-01T22:15:43.421Z,15.10
2019-04-01T22:18:10.355Z,14.77
2019-04-01T22:20:38.968Z,15.30
2019-04-01T22:23:05.252Z,15.17
2019-04-01T22:25:31.140Z,14.90
2019-04-01T22:27:58.102Z,15.30
2019-04-01T22:30:25.016Z,14.90
2019-04-01T22:32:51.948Z,16.50
2019-04-01T22:35:18.896Z,14.83
2019-04-01T22:37:45.812Z,15.00
2019-04-01T22:40:12.723Z,14.30
2019-04-01T22:42:39.708Z,15.40
2019-04-01T22:45:12.286Z,14.47
2019-04-01T22:47:38.688Z,15.30
2019-04-01T22:50:05.623Z,15.30
2019-04-01T22:52:32.537Z,16.00
2019-04-01T22:54:59.560Z,15.40
2019-04-01T22:57:26.814Z,15.40
2019-04-01T22:59:54.591Z,15.90
2019-04-01T23:02:21.533Z,15.83
2019-04-01T23:04:48.484Z,16.40
2019-04-01T23:07:15.411Z,16.27
2019-04-01T23:09:42.344Z,16.03
2019-04-01T23:12:09.285Z,17.10
2019-04-01T23:14:36.213Z,16.90
2019-04-01T23:17:03.143Z,16.77
2019-04-01T23:19:30.232Z,16.17
2019-04-01T23:21:57.144Z,16.83
2019-04-01T23:24:24.062Z,16.70
2019-04-01T23:26:50.996Z,17.03
2019-04-01T23:29:17.909Z,17.43
2019-04-01T23:31:44.824Z,16.40
2019-04-01T23:34:11.788Z,17.03
2019-04-01T23:36:38.696Z,17.07
2019-04-01T23:39:06.296Z,17.60
2019-04-01T23:41:33.223Z,16.47
2019-04-01T23:44:00.145Z,17.37
2019-04-01T23:46:27.069Z,16.50
2019-04-01T23:48:54.024Z,17.43
2019-04-01T23:51:20.957Z,16.67
2019-04-01T23:53:47.892Z,17.20
2019-04-01T23:56:14.839Z,17.67
2019-04-01T23:58:43.141Z,16.80
